sensor_id;sensor_type;location;lat;lon;timestamp;temperature;humidity
72288;SHT31;60221;45.696;16.076;2022-07-23T00:01:23;25.67;57.06
72288;SHT31;60221;45.696;16.076;2022-07-23T00:03:50;25.42;57.73
72288;SHT31;60221;45.696;16.076;2022-07-23T00:06:17;25.21;58.29
72288;SHT31;60221;45.696;16.076;2022-07-23T00:08:43;25.07;58.84
72288;SHT31;60221;45.696;16.076;2022-07-23T00:11:10;24.90;59.40
72288;SHT31;60221;45.696;16.076;2022-07-23T00:13:36;24.75;59.66
72288;SHT31;60221;45.696;16.076;2022-07-23T00:16:04;24.62;60.16
72288;SHT31;60221;45.696;16.076;2022-07-23T00:18:30;24.47;60.50
72288;SHT31;60221;45.696;16.076;2022-07-23T00:20:56;24.37;60.86
72288;SHT31;60221;45.696;16.076;2022-07-23T00:23:23;24.23;61.12
72288;SHT31;60221;45.696;16.076;2022-07-23T00:25:51;24.15;61.41
72288;SHT31;60221;45.696;16.076;2022-07-23T00:28:18;24.04;61.57
72288;SHT31;60221;45.696;16.076;2022-07-23T00:30:45;23.94;61.93
72288;SHT31;60221;45.696;16.076;2022-07-23T00:33:11;23.87;62.24
72288;SHT31;60221;45.696;16.076;2022-07-23T00:35:40;24.59;64.89
72288;SHT31;60221;45.696;16.076;2022-07-23T00:38:09;25.97;63.29
72288;SHT31;60221;45.696;16.076;2022-07-23T00:40:38;26.94;59.77
72288;SHT31;60221;45.696;16.076;2022-07-23T00:43:05;26.98;55.77
72288;SHT31;60221;45.696;16.076;2022-07-23T00:45:31;26.28;55.68
72288;SHT31;60221;45.696;16.076;2022-07-23T00:47:59;25.73;56.42
72288;SHT31;60221;45.696;16.076;2022-07-23T00:50:26;25.39;57.11
72288;SHT31;60221;45.696;16.076;2022-07-23T00:52:52;25.09;57.54
72288;SHT31;60221;45.696;16.076;2022-07-23T00:55:19;24.87;58.14
72288;SHT31;60221;45.696;16.076;2022-07-23T00:57:47;24.67;58.81
72288;SHT31;60221;45.696;16.076;2022-07-23T01:00:15;24.49;59.16
72288;SHT31;60221;45.696;16.076;2022-07-23T01:02:42;24.32;59.66
72288;SHT31;60221;45.696;16.076;2022-07-23T01:05:09;24.16;60.09
72288;SHT31;60221;45.696;16.076;2022-07-23T01:07:36;24.04;60.42
72288;SHT31;60221;45.696;16.076;2022-07-23T01:10:04;23.94;60.85
72288;SHT31;60221;45.696;16.076;2022-07-23T01:12:32;23.82;61.21
72288;SHT31;60221;45.696;16.076;2022-07-23T01:15:00;23.74;61.45
72288;SHT31;60221;45.696;16.076;2022-07-23T01:17:29;23.62;61.77
72288;SHT31;60221;45.696;16.076;2022-07-23T01:19:56;23.51;61.99
72288;SHT31;60221;45.696;16.076;2022-07-23T01:22:27;23.43;62.25
72288;SHT31;60221;45.696;16.076;2022-07-23T01:24:51;24.04;63.71
72288;SHT31;60221;45.696;16.076;2022-07-23T01:27:19;24.84;62.68
72288;SHT31;60221;45.696;16.076;2022-07-23T01:29:46;25.12;60.82
72288;SHT31;60221;45.696;16.076;2022-07-23T01:32:14;25.33;60.47
72288;SHT31;60221;45.696;16.076;2022-07-23T01:34:40;25.54;59.59
72288;SHT31;60221;45.696;16.076;2022-07-23T01:37:07;25.43;57.89
72288;SHT31;60221;45.696;16.076;2022-07-23T01:39:33;24.98;57.90
72288;SHT31;60221;45.696;16.076;2022-07-23T01:41:59;24.64;58.49
72288;SHT31;60221;45.696;16.076;2022-07-23T01:44:26;24.35;59.10
72288;SHT31;60221;45.696;16.076;2022-07-23T01:46:52;24.19;59.75
72288;SHT31;60221;45.696;16.076;2022-07-23T01:49:20;24.04;60.17
72288;SHT31;60221;45.696;16.076;2022-07-23T01:51:57;23.88;60.42
72288;SHT31;60221;45.696;16.076;2022-07-23T01:54:32;23.75;60.75
72288;SHT31;60221;45.696;16.076;2022-07-23T01:57:00;23.65;61.09
72288;SHT31;60221;45.696;16.076;2022-07-23T01:59:27;23.53;61.35
72288;SHT31;60221;45.696;16.076;2022-07-23T02:01:54;23.41;61.71
72288;SHT31;60221;45.696;16.076;2022-07-23T02:04:23;23.32;61.93
72288;SHT31;60221;45.696;16.076;2022-07-23T02:06:52;23.20;62.26
72288;SHT31;60221;45.696;16.076;2022-07-23T02:09:19;23.67;63.48
72288;SHT31;60221;45.696;16.076;2022-07-23T02:11:47;24.62;63.48
72288;SHT31;60221;45.696;16.076;2022-07-23T02:14:13;25.05;61.88
72288;SHT31;60221;45.696;16.076;2022-07-23T02:16:39;25.62;60.85
72288;SHT31;60221;45.696;16.076;2022-07-23T02:19:05;26.24;58.99
72288;SHT31;60221;45.696;16.076;2022-07-23T02:21:31;26.09;56.25
72288;SHT31;60221;45.696;16.076;2022-07-23T02:23:57;25.42;56.35
72288;SHT31;60221;45.696;16.076;2022-07-23T02:26:24;24.88;57.22
72288;SHT31;60221;45.696;16.076;2022-07-23T02:28:51;24.50;58.07
72288;SHT31;60221;45.696;16.076;2022-07-23T02:31:20;24.16;58.83
72288;SHT31;60221;45.696;16.076;2022-07-23T02:33:46;23.98;59.45
72288;SHT31;60221;45.696;16.076;2022-07-23T02:36:13;23.78;60.05
72288;SHT31;60221;45.696;16.076;2022-07-23T02:38:40;23.62;60.53
72288;SHT31;60221;45.696;16.076;2022-07-23T02:41:06;23.49;60.93
72288;SHT31;60221;45.696;16.076;2022-07-23T02:43:32;23.33;61.39
72288;SHT31;60221;45.696;16.076;2022-07-23T02:45:58;23.19;61.79
72288;SHT31;60221;45.696;16.076;2022-07-23T02:48:25;23.03;62.24
72288;SHT31;60221;45.696;16.076;2022-07-23T02:50:51;23.65;64.79
72288;SHT31;60221;45.696;16.076;2022-07-23T02:53:20;24.60;62.91
72288;SHT31;60221;45.696;16.076;2022-07-23T02:55:47;25.19;61.85
72288;SHT31;60221;45.696;16.076;2022-07-23T02:58:13;25.95;60.14
72288;SHT31;60221;45.696;16.076;2022-07-23T03:00:39;25.95;56.77
72288;SHT31;60221;45.696;16.076;2022-07-23T03:03:06;25.28;56.38
72288;SHT31;60221;45.696;16.076;2022-07-23T03:05:34;24.70;57.30
72288;SHT31;60221;45.696;16.076;2022-07-23T03:08:00;24.29;58.20
72288;SHT31;60221;45.696;16.076;2022-07-23T03:10:30;23.97;58.88
72288;SHT31;60221;45.696;16.076;2022-07-23T03:12:55;23.70;59.60
72288;SHT31;60221;45.696;16.076;2022-07-23T03:15:21;23.47;60.08
72288;SHT31;60221;45.696;16.076;2022-07-23T03:17:47;23.27;60.64
72288;SHT31;60221;45.696;16.076;2022-07-23T03:20:15;23.09;61.29
72288;SHT31;60221;45.696;16.076;2022-07-23T03:22:41;22.88;61.78
72288;SHT31;60221;45.696;16.076;2022-07-23T03:25:09;22.72;62.33
72288;SHT31;60221;45.696;16.076;2022-07-23T03:27:36;23.46;64.42
72288;SHT31;60221;45.696;16.076;2022-07-23T03:30:02;24.78;64.45
72288;SHT31;60221;45.696;16.076;2022-07-23T03:32:29;25.60;60.44
72288;SHT31;60221;45.696;16.076;2022-07-23T03:34:55;26.12;58.19
72288;SHT31;60221;45.696;16.076;2022-07-23T03:37:21;25.85;55.72
72288;SHT31;60221;45.696;16.076;2022-07-23T03:39:48;25.18;56.20
72288;SHT31;60221;45.696;16.076;2022-07-23T03:42:14;24.63;57.20
72288;SHT31;60221;45.696;16.076;2022-07-23T03:44:41;24.22;58.00
72288;SHT31;60221;45.696;16.076;2022-07-23T03:47:07;23.92;58.66
72288;SHT31;60221;45.696;16.076;2022-07-23T03:49:33;23.67;59.45
72288;SHT31;60221;45.696;16.076;2022-07-23T03:51:59;23.46;60.08
72288;SHT31;60221;45.696;16.076;2022-07-23T03:54:25;23.26;60.76
72288;SHT31;60221;45.696;16.076;2022-07-23T03:56:52;23.15;61.15
72288;SHT31;60221;45.696;16.076;2022-07-23T03:59:18;23.07;61.50
72288;SHT31;60221;45.696;16.076;2022-07-23T04:01:44;22.96;61.90
72288;SHT31;60221;45.696;16.076;2022-07-23T04:04:10;22.86;62.42
72288;SHT31;60221;45.696;16.076;2022-07-23T04:06:37;23.46;64.94
72288;SHT31;60221;45.696;16.076;2022-07-23T04:09:03;24.77;64.99
72288;SHT31;60221;45.696;16.076;2022-07-23T04:11:31;26.00;60.73
72288;SHT31;60221;45.696;16.076;2022-07-23T04:13:57;26.59;57.62
72288;SHT31;60221;45.696;16.076;2022-07-23T04:16:23;26.42;54.92
72288;SHT31;60221;45.696;16.076;2022-07-23T04:18:49;25.74;55.30
72288;SHT31;60221;45.696;16.076;2022-07-23T04:21:17;25.21;56.40
72288;SHT31;60221;45.696;16.076;2022-07-23T04:23:44;24.91;57.15
72288;SHT31;60221;45.696;16.076;2022-07-23T04:26:10;24.73;57.99
72288;SHT31;60221;45.696;16.076;2022-07-23T04:28:37;24.60;58.59
72288;SHT31;60221;45.696;16.076;2022-07-23T04:31:04;24.63;59.21
72288;SHT31;60221;45.696;16.076;2022-07-23T04:33:30;24.71;59.57
72288;SHT31;60221;45.696;16.076;2022-07-23T04:35:57;24.88;60.17
72288;SHT31;60221;45.696;16.076;2022-07-23T04:38:24;25.09;60.38
72288;SHT31;60221;45.696;16.076;2022-07-23T04:40:52;25.30;60.38
72288;SHT31;60221;45.696;16.076;2022-07-23T04:43:19;25.50;60.27
72288;SHT31;60221;45.696;16.076;2022-07-23T04:45:48;25.76;59.76
72288;SHT31;60221;45.696;16.076;2022-07-23T04:48:14;26.05;59.30
72288;SHT31;60221;45.696;16.076;2022-07-23T04:50:40;26.32;59.09
72288;SHT31;60221;45.696;16.076;2022-07-23T04:53:10;26.66;58.33
72288;SHT31;60221;45.696;16.076;2022-07-23T04:55:36;26.97;58.00
72288;SHT31;60221;45.696;16.076;2022-07-23T04:58:03;27.28;57.35
72288;SHT31;60221;45.696;16.076;2022-07-23T05:00:29;27.63;56.75
72288;SHT31;60221;45.696;16.076;2022-07-23T05:02:55;27.96;56.00
72288;SHT31;60221;45.696;16.076;2022-07-23T05:05:21;28.28;55.34
72288;SHT31;60221;45.696;16.076;2022-07-23T05:07:47;28.61;54.72
72288;SHT31;60221;45.696;16.076;2022-07-23T05:10:13;28.93;54.46
72288;SHT31;60221;45.696;16.076;2022-07-23T05:12:40;29.20;53.75
72288;SHT31;60221;45.696;16.076;2022-07-23T05:15:07;29.44;52.80
72288;SHT31;60221;45.696;16.076;2022-07-23T05:17:33;29.74;52.26
72288;SHT31;60221;45.696;16.076;2022-07-23T05:20:01;30.04;51.51
72288;SHT31;60221;45.696;16.076;2022-07-23T05:22:28;30.32;50.71
72288;SHT31;60221;45.696;16.076;2022-07-23T05:24:54;30.57;49.98
72288;SHT31;60221;45.696;16.076;2022-07-23T05:27:21;30.87;49.62
72288;SHT31;60221;45.696;16.076;2022-07-23T05:29:47;31.11;48.83
72288;SHT31;60221;45.696;16.076;2022-07-23T05:32:13;31.37;48.10
72288;SHT31;60221;45.696;16.076;2022-07-23T05:34:41;31.63;47.23
72288;SHT31;60221;45.696;16.076;2022-07-23T05:37:07;31.87;46.53
72288;SHT31;60221;45.696;16.076;2022-07-23T05:39:34;32.15;46.08
72288;SHT31;60221;45.696;16.076;2022-07-23T05:42:00;32.39;45.16
72288;SHT31;60221;45.696;16.076;2022-07-23T05:44:27;32.61;44.37
72288;SHT31;60221;45.696;16.076;2022-07-23T05:46:53;32.84;43.94
72288;SHT31;60221;45.696;16.076;2022-07-23T05:49:20;33.10;43.07
72288;SHT31;60221;45.696;16.076;2022-07-23T05:51:57;33.31;42.64
72288;SHT31;60221;45.696;16.076;2022-07-23T05:54:25;33.54;41.63
72288;SHT31;60221;45.696;16.076;2022-07-23T05:56:51;33.69;41.14
72288;SHT31;60221;45.696;16.076;2022-07-23T05:59:18;33.89;40.66
72288;SHT31;60221;45.696;16.076;2022-07-23T06:01:45;34.07;40.20
72288;SHT31;60221;45.696;16.076;2022-07-23T06:04:11;34.24;39.85
72288;SHT31;60221;45.696;16.076;2022-07-23T06:06:39;34.43;39.44
72288;SHT31;60221;45.696;16.076;2022-07-23T06:09:07;34.61;38.83
72288;SHT31;60221;45.696;16.076;2022-07-23T06:11:34;34.74;38.42
72288;SHT31;60221;45.696;16.076;2022-07-23T06:14:00;34.91;38.26
72288;SHT31;60221;45.696;16.076;2022-07-23T06:16:28;35.05;37.84
72288;SHT31;60221;45.696;16.076;2022-07-23T06:18:55;35.20;37.10
72288;SHT31;60221;45.696;16.076;2022-07-23T06:21:21;35.34;36.70
72288;SHT31;60221;45.696;16.076;2022-07-23T06:23:48;35.50;36.30
72288;SHT31;60221;45.696;16.076;2022-07-23T06:26:14;35.64;35.90
72288;SHT31;60221;45.696;16.076;2022-07-23T06:28:40;35.77;35.52
72288;SHT31;60221;45.696;16.076;2022-07-23T06:31:07;35.87;35.68
72288;SHT31;60221;45.696;16.076;2022-07-23T06:33:34;35.97;35.55
72288;SHT31;60221;45.696;16.076;2022-07-23T06:36:00;36.12;35.32
72288;SHT31;60221;45.696;16.076;2022-07-23T06:38:26;36.21;35.11
72288;SHT31;60221;45.696;16.076;2022-07-23T06:40:52;36.38;35.04
72288;SHT31;60221;45.696;16.076;2022-07-23T06:43:19;36.50;34.31
72288;SHT31;60221;45.696;16.076;2022-07-23T06:45:45;36.59;34.22
72288;SHT31;60221;45.696;16.076;2022-07-23T06:48:11;36.66;33.89
72288;SHT31;60221;45.696;16.076;2022-07-23T06:50:37;36.77;33.45
72288;SHT31;60221;45.696;16.076;2022-07-23T06:53:03;36.84;33.60
72288;SHT31;60221;45.696;16.076;2022-07-23T06:55:30;36.93;33.39
72288;SHT31;60221;45.696;16.076;2022-07-23T06:57:57;36.98;33.30
72288;SHT31;60221;45.696;16.076;2022-07-23T07:00:23;37.11;33.30
72288;SHT31;60221;45.696;16.076;2022-07-23T07:02:49;37.18;33.14
72288;SHT31;60221;45.696;16.076;2022-07-23T07:05:15;37.27;33.09
72288;SHT31;60221;45.696;16.076;2022-07-23T07:07:41;37.37;32.94
72288;SHT31;60221;45.696;16.076;2022-07-23T07:10:09;37.49;32.85
72288;SHT31;60221;45.696;16.076;2022-07-23T07:12:35;37.62;32.65
72288;SHT31;60221;45.696;16.076;2022-07-23T07:15:01;37.66;32.27
72288;SHT31;60221;45.696;16.076;2022-07-23T07:17:27;37.76;32.04
72288;SHT31;60221;45.696;16.076;2022-07-23T07:19:53;37.87;31.99
72288;SHT31;60221;45.696;16.076;2022-07-23T07:22:19;37.92;32.11
72288;SHT31;60221;45.696;16.076;2022-07-23T07:24:45;37.96;32.47
72288;SHT31;60221;45.696;16.076;2022-07-23T07:27:11;37.98;32.04
72288;SHT31;60221;45.696;16.076;2022-07-23T07:29:37;38.07;31.71
72288;SHT31;60221;45.696;16.076;2022-07-23T07:32:04;38.07;31.68
72288;SHT31;60221;45.696;16.076;2022-07-23T07:34:30;38.03;31.95
72288;SHT31;60221;45.696;16.076;2022-07-23T07:36:56;37.93;32.06
72288;SHT31;60221;45.696;16.076;2022-07-23T07:39:22;37.98;31.66
72288;SHT31;60221;45.696;16.076;2022-07-23T07:41:48;37.94;31.39
72288;SHT31;60221;45.696;16.076;2022-07-23T07:44:14;37.92;31.35
72288;SHT31;60221;45.696;16.076;2022-07-23T07:46:41;37.89;30.98
72288;SHT31;60221;45.696;16.076;2022-07-23T07:49:07;37.68;31.77
72288;SHT31;60221;45.696;16.076;2022-07-23T07:51:33;37.55;31.67
72288;SHT31;60221;45.696;16.076;2022-07-23T07:54:00;37.49;31.82
72288;SHT31;60221;45.696;16.076;2022-07-23T07:56:27;37.51;31.65
72288;SHT31;60221;45.696;16.076;2022-07-23T07:58:53;37.27;31.68
72288;SHT31;60221;45.696;16.076;2022-07-23T08:01:19;37.18;32.09
72288;SHT31;60221;45.696;16.076;2022-07-23T08:03:46;37.14;32.34
72288;SHT31;60221;45.696;16.076;2022-07-23T08:06:13;37.16;32.12
72288;SHT31;60221;45.696;16.076;2022-07-23T08:08:39;37.18;32.09
72288;SHT31;60221;45.696;16.076;2022-07-23T08:11:05;37.22;31.75
72288;SHT31;60221;45.696;16.076;2022-07-23T08:13:31;37.22;31.98
72288;SHT31;60221;45.696;16.076;2022-07-23T08:15:57;37.17;32.16
72288;SHT31;60221;45.696;16.076;2022-07-23T08:18:23;37.08;31.84
72288;SHT31;60221;45.696;16.076;2022-07-23T08:20:49;37.02;32.04
72288;SHT31;60221;45.696;16.076;2022-07-23T08:23:15;36.90;32.62
72288;SHT31;60221;45.696;16.076;2022-07-23T08:25:43;36.90;32.46
72288;SHT31;60221;45.696;16.076;2022-07-23T08:28:12;36.83;32.52
72288;SHT31;60221;45.696;16.076;2022-07-23T08:30:42;36.66;32.38
72288;SHT31;60221;45.696;16.076;2022-07-23T08:33:12;36.53;32.12
72288;SHT31;60221;45.696;16.076;2022-07-23T08:35:46;36.42;32.64
72288;SHT31;60221;45.696;16.076;2022-07-23T08:38:19;36.46;32.35
72288;SHT31;60221;45.696;16.076;2022-07-23T08:40:50;36.45;32.64
72288;SHT31;60221;45.696;16.076;2022-07-23T08:43:20;36.46;32.82
72288;SHT31;60221;45.696;16.076;2022-07-23T08:45:51;36.47;32.83
72288;SHT31;60221;45.696;16.076;2022-07-23T08:48:27;36.49;32.92
72288;SHT31;60221;45.696;16.076;2022-07-23T08:50:57;36.52;32.88
72288;SHT31;60221;45.696;16.076;2022-07-23T08:53:27;36.52;33.20
72288;SHT31;60221;45.696;16.076;2022-07-23T08:55:58;36.49;33.50
72288;SHT31;60221;45.696;16.076;2022-07-23T08:58:25;36.57;33.64
72288;SHT31;60221;45.696;16.076;2022-07-23T09:00:51;36.69;33.59
72288;SHT31;60221;45.696;16.076;2022-07-23T09:03:24;36.76;33.46
72288;SHT31;60221;45.696;16.076;2022-07-23T09:05:53;36.81;33.22
72288;SHT31;60221;45.696;16.076;2022-07-23T09:08:22;36.87;33.65
72288;SHT31;60221;45.696;16.076;2022-07-23T09:10:53;36.94;33.47
72288;SHT31;60221;45.696;16.076;2022-07-23T09:13:32;37.00;32.67
72288;SHT31;60221;45.696;16.076;2022-07-23T09:16:04;37.02;32.86
72288;SHT31;60221;45.696;16.076;2022-07-23T09:18:58;37.02;32.14
72288;SHT31;60221;45.696;16.076;2022-07-23T09:21:36;37.13;31.99
72288;SHT31;60221;45.696;16.076;2022-07-23T09:24:07;37.11;30.81
72288;SHT31;60221;45.696;16.076;2022-07-23T09:26:38;37.07;31.44
72288;SHT31;60221;45.696;16.076;2022-07-23T09:29:29;37.14;31.74
72288;SHT31;60221;45.696;16.076;2022-07-23T09:31:51;37.17;32.07
72288;SHT31;60221;45.696;16.076;2022-07-23T09:34:31;37.21;32.20
72288;SHT31;60221;45.696;16.076;2022-07-23T09:37:15;37.27;31.60
72288;SHT31;60221;45.696;16.076;2022-07-23T09:39:43;37.28;31.55
72288;SHT31;60221;45.696;16.076;2022-07-23T09:42:24;37.32;31.11
72288;SHT31;60221;45.696;16.076;2022-07-23T09:44:57;37.38;30.63
72288;SHT31;60221;45.696;16.076;2022-07-23T09:47:22;37.41;30.39
72288;SHT31;60221;45.696;16.076;2022-07-23T09:50:09;37.41;30.86
72288;SHT31;60221;45.696;16.076;2022-07-23T09:52:49;37.46;31.13
72288;SHT31;60221;45.696;16.076;2022-07-23T09:55:17;37.54;30.96
72288;SHT31;60221;45.696;16.076;2022-07-23T09:57:46;37.61;30.60
72288;SHT31;60221;45.696;16.076;2022-07-23T10:00:20;37.64;30.06
72288;SHT31;60221;45.696;16.076;2022-07-23T10:02:47;37.72;29.99
72288;SHT31;60221;45.696;16.076;2022-07-23T10:05:31;37.73;29.59
72288;SHT31;60221;45.696;16.076;2022-07-23T10:08:20;37.75;29.62
72288;SHT31;60221;45.696;16.076;2022-07-23T10:11:00;37.73;29.71
72288;SHT31;60221;45.696;16.076;2022-07-23T10:13:34;37.68;29.53
72288;SHT31;60221;45.696;16.076;2022-07-23T10:16:21;37.66;29.91
72288;SHT31;60221;45.696;16.076;2022-07-23T10:18:48;37.71;29.94
72288;SHT31;60221;45.696;16.076;2022-07-23T10:21:46;37.76;29.74
72288;SHT31;60221;45.696;16.076;2022-07-23T10:24:24;37.84;29.51
72288;SHT31;60221;45.696;16.076;2022-07-23T10:30:03;37.96;28.59
72288;SHT31;60221;45.696;16.076;2022-07-23T10:41:02;38.21;29.05
72288;SHT31;60221;45.696;16.076;2022-07-23T10:43:30;38.35;28.40
72288;SHT31;60221;45.696;16.076;2022-07-23T10:46:22;38.41;28.45
72288;SHT31;60221;45.696;16.076;2022-07-23T10:52:20;38.47;27.73
72288;SHT31;60221;45.696;16.076;2022-07-23T10:57:50;38.51;28.07
72288;SHT31;60221;45.696;16.076;2022-07-23T11:00:26;38.55;28.19
72288;SHT31;60221;45.696;16.076;2022-07-23T11:02:58;38.54;27.98
72288;SHT31;60221;45.696;16.076;2022-07-23T11:05:43;38.62;27.89
72288;SHT31;60221;45.696;16.076;2022-07-23T11:08:19;38.69;28.04
72288;SHT31;60221;45.696;16.076;2022-07-23T11:13:33;38.85;26.42
72288;SHT31;60221;45.696;16.076;2022-07-23T11:16:05;38.89;25.81
72288;SHT31;60221;45.696;16.076;2022-07-23T11:18:55;38.81;26.20
72288;SHT31;60221;45.696;16.076;2022-07-23T11:26:48;38.89;25.69
72288;SHT31;60221;45.696;16.076;2022-07-23T11:32:17;38.89;26.15
72288;SHT31;60221;45.696;16.076;2022-07-23T11:34:46;38.93;26.14
72288;SHT31;60221;45.696;16.076;2022-07-23T11:40:10;38.98;26.31
72288;SHT31;60221;45.696;16.076;2022-07-23T11:42:39;39.09;26.09
72288;SHT31;60221;45.696;16.076;2022-07-23T11:45:08;39.20;25.98
72288;SHT31;60221;45.696;16.076;2022-07-23T11:47:35;39.27;26.00
72288;SHT31;60221;45.696;16.076;2022-07-23T11:50:06;39.37;25.88
72288;SHT31;60221;45.696;16.076;2022-07-23T11:52:33;39.50;25.51
72288;SHT31;60221;45.696;16.076;2022-07-23T11:55:04;39.60;24.70
72288;SHT31;60221;45.696;16.076;2022-07-23T11:57:39;39.63;24.02
72288;SHT31;60221;45.696;16.076;2022-07-23T12:02:43;39.67;23.52
72288;SHT31;60221;45.696;16.076;2022-07-23T12:05:29;39.65;23.69
72288;SHT31;60221;45.696;16.076;2022-07-23T12:07:54;39.58;24.31
72288;SHT31;60221;45.696;16.076;2022-07-23T12:10:34;39.57;24.13
72288;SHT31;60221;45.696;16.076;2022-07-23T12:13:05;39.61;23.97
72288;SHT31;60221;45.696;16.076;2022-07-23T12:18:10;39.75;23.59
72288;SHT31;60221;45.696;16.076;2022-07-23T12:20:44;39.83;23.10
72288;SHT31;60221;45.696;16.076;2022-07-23T12:23:10;39.90;22.94
72288;SHT31;60221;45.696;16.076;2022-07-23T12:25:41;39.92;22.71
72288;SHT31;60221;45.696;16.076;2022-07-23T12:28:15;39.96;21.71
72288;SHT31;60221;45.696;16.076;2022-07-23T12:30:54;39.98;21.89
72288;SHT31;60221;45.696;16.076;2022-07-23T12:33:37;40.01;21.95
72288;SHT31;60221;45.696;16.076;2022-07-23T12:36:07;40.12;22.35
72288;SHT31;60221;45.696;16.076;2022-07-23T12:38:42;40.19;22.74
72288;SHT31;60221;45.696;16.076;2022-07-23T12:41:11;40.23;22.58
72288;SHT31;60221;45.696;16.076;2022-07-23T12:43:40;40.28;22.90
72288;SHT31;60221;45.696;16.076;2022-07-23T12:46:19;40.29;22.78
72288;SHT31;60221;45.696;16.076;2022-07-23T12:48:52;40.36;22.22
72288;SHT31;60221;45.696;16.076;2022-07-23T12:51:26;40.39;22.08
72288;SHT31;60221;45.696;16.076;2022-07-23T12:54:06;40.39;22.42
72288;SHT31;60221;45.696;16.076;2022-07-23T12:56:40;40.43;22.53
72288;SHT31;60221;45.696;16.076;2022-07-23T12:59:10;40.42;22.48
72288;SHT31;60221;45.696;16.076;2022-07-23T13:01:39;40.42;22.55
72288;SHT31;60221;45.696;16.076;2022-07-23T13:04:17;40.45;22.47
72288;SHT31;60221;45.696;16.076;2022-07-23T13:06:53;40.47;22.28
72288;SHT31;60221;45.696;16.076;2022-07-23T13:09:27;40.50;21.96
72288;SHT31;60221;45.696;16.076;2022-07-23T13:11:56;40.49;21.31
72288;SHT31;60221;45.696;16.076;2022-07-23T13:14:24;40.43;21.08
72288;SHT31;60221;45.696;16.076;2022-07-23T13:16:53;40.35;21.46
72288;SHT31;60221;45.696;16.076;2022-07-23T13:19:20;40.35;21.52
72288;SHT31;60221;45.696;16.076;2022-07-23T13:21:48;40.31;21.93
72288;SHT31;60221;45.696;16.076;2022-07-23T13:24:15;40.31;21.66
72288;SHT31;60221;45.696;16.076;2022-07-23T13:26:42;40.29;22.13
72288;SHT31;60221;45.696;16.076;2022-07-23T13:29:09;40.29;22.25
72288;SHT31;60221;45.696;16.076;2022-07-23T13:31:38;40.26;22.19
72288;SHT31;60221;45.696;16.076;2022-07-23T13:34:05;40.25;21.57
72288;SHT31;60221;45.696;16.076;2022-07-23T13:36:31;40.20;21.47
72288;SHT31;60221;45.696;16.076;2022-07-23T13:38:57;40.16;21.70
72288;SHT31;60221;45.696;16.076;2022-07-23T13:41:23;40.11;21.91
72288;SHT31;60221;45.696;16.076;2022-07-23T13:43:50;40.12;21.99
72288;SHT31;60221;45.696;16.076;2022-07-23T13:46:16;40.15;22.02
72288;SHT31;60221;45.696;16.076;2022-07-23T13:48:42;40.11;21.64
72288;SHT31;60221;45.696;16.076;2022-07-23T13:51:08;40.09;21.97
72288;SHT31;60221;45.696;16.076;2022-07-23T13:53:34;40.14;22.31
72288;SHT31;60221;45.696;16.076;2022-07-23T13:56:01;40.11;22.24
72288;SHT31;60221;45.696;16.076;2022-07-23T13:58:27;40.12;22.30
72288;SHT31;60221;45.696;16.076;2022-07-23T14:00:54;40.14;22.05
72288;SHT31;60221;45.696;16.076;2022-07-23T14:03:22;40.14;21.88
72288;SHT31;60221;45.696;16.076;2022-07-23T14:05:51;40.09;22.35
72288;SHT31;60221;45.696;16.076;2022-07-23T14:08:17;40.08;22.51
72288;SHT31;60221;45.696;16.076;2022-07-23T14:10:44;40.11;22.46
72288;SHT31;60221;45.696;16.076;2022-07-23T14:13:10;40.11;22.55
72288;SHT31;60221;45.696;16.076;2022-07-23T14:15:36;40.12;22.35
72288;SHT31;60221;45.696;16.076;2022-07-23T14:18:04;40.11;22.19
72288;SHT31;60221;45.696;16.076;2022-07-23T14:20:30;40.12;22.67
72288;SHT31;60221;45.696;16.076;2022-07-23T14:22:56;40.14;23.02
72288;SHT31;60221;45.696;16.076;2022-07-23T14:25:26;40.14;22.66
72288;SHT31;60221;45.696;16.076;2022-07-23T14:27:53;40.16;22.56
72288;SHT31;60221;45.696;16.076;2022-07-23T14:30:20;40.12;22.47
72288;SHT31;60221;45.696;16.076;2022-07-23T14:32:48;40.12;22.38
72288;SHT31;60221;45.696;16.076;2022-07-23T14:35:14;40.11;22.81
72288;SHT31;60221;45.696;16.076;2022-07-23T14:37:40;40.06;22.62
72288;SHT31;60221;45.696;16.076;2022-07-23T14:40:07;40.01;22.43
72288;SHT31;60221;45.696;16.076;2022-07-23T14:42:34;40.01;22.49
72288;SHT31;60221;45.696;16.076;2022-07-23T14:45:00;39.96;22.49
72288;SHT31;60221;45.696;16.076;2022-07-23T14:47:26;39.87;22.53
72288;SHT31;60221;45.696;16.076;2022-07-23T14:49:52;39.81;22.49
72288;SHT31;60221;45.696;16.076;2022-07-23T14:52:18;39.75;22.71
72288;SHT31;60221;45.696;16.076;2022-07-23T14:54:44;39.75;22.78
72288;SHT31;60221;45.696;16.076;2022-07-23T14:57:12;39.71;23.76
72288;SHT31;60221;45.696;16.076;2022-07-23T14:59:38;39.68;23.63
72288;SHT31;60221;45.696;16.076;2022-07-23T15:02:04;39.67;23.74
72288;SHT31;60221;45.696;16.076;2022-07-23T15:04:30;39.65;23.50
72288;SHT31;60221;45.696;16.076;2022-07-23T15:06:56;39.67;23.58
72288;SHT31;60221;45.696;16.076;2022-07-23T15:09:22;39.65;23.98
72288;SHT31;60221;45.696;16.076;2022-07-23T15:11:48;39.61;23.58
72288;SHT31;60221;45.696;16.076;2022-07-23T15:14:14;39.60;23.69
72288;SHT31;60221;45.696;16.076;2022-07-23T15:16:40;39.58;23.94
72288;SHT31;60221;45.696;16.076;2022-07-23T15:19:06;39.54;23.92
72288;SHT31;60221;45.696;16.076;2022-07-23T15:21:32;39.50;23.65
72288;SHT31;60221;45.696;16.076;2022-07-23T15:23:59;39.43;24.16
72288;SHT31;60221;45.696;16.076;2022-07-23T15:26:28;39.39;24.30
72288;SHT31;60221;45.696;16.076;2022-07-23T15:28:56;39.37;24.12
72288;SHT31;60221;45.696;16.076;2022-07-23T15:31:25;39.36;24.33
72288;SHT31;60221;45.696;16.076;2022-07-23T15:33:51;39.29;24.34
72288;SHT31;60221;45.696;16.076;2022-07-23T15:36:19;39.26;24.55
72288;SHT31;60221;45.696;16.076;2022-07-23T15:38:47;39.22;24.28
72288;SHT31;60221;45.696;16.076;2022-07-23T15:41:14;39.13;24.23
72288;SHT31;60221;45.696;16.076;2022-07-23T15:43:40;39.09;24.40
72288;SHT31;60221;45.696;16.076;2022-07-23T15:46:07;39.03;24.65
72288;SHT31;60221;45.696;16.076;2022-07-23T15:48:37;38.96;24.88
72288;SHT31;60221;45.696;16.076;2022-07-23T15:51:05;38.91;24.92
72288;SHT31;60221;45.696;16.076;2022-07-23T15:53:32;38.83;24.78
72288;SHT31;60221;45.696;16.076;2022-07-23T15:55:59;38.78;24.97
72288;SHT31;60221;45.696;16.076;2022-07-23T15:58:28;38.71;25.23
72288;SHT31;60221;45.696;16.076;2022-07-23T16:00:55;38.65;25.38